sensor_id;sensor_type;location;lat;lon;timestamp;pressure;altitude;pressure_sealevel;temperature;humidity
34328;BME280;20588;48.840;10.064;2023-07-08T00:00:44;96623.66;;;18.61;49.01
34328;BME280;20588;48.840;10.064;2023-07-08T00:03:14;96627.31;;;18.65;48.79
34328;BME280;20588;48.840;10.064;2023-07-08T00:05:41;96623.41;;;18.68;48.35
34328;BME280;20588;48.840;10.064;2023-07-08T00:08:17;96632.03;;;18.68;48.68
34328;BME280;20588;48.840;10.064;2023-07-08T00:10:46;96626.25;;;18.66;48.77
34328;BME280;20588;48.840;10.064;2023-07-08T00:13:12;96626.53;;;18.65;49.56
34328;BME280;20588;48.840;10.064;2023-07-08T00:15:39;96627.28;;;18.60;49.73
34328;BME280;20588;48.840;10.064;2023-07-08T00:18:14;96625.72;;;18.54;50.61
34328;BME280;20588;48.840;10.064;2023-07-08T00:20:50;96626.75;;;18.48;51.38
34328;BME280;20588;48.840;10.064;2023-07-08T00:23:16;96620.50;;;18.44;51.59
34328;BME280;20588;48.840;10.064;2023-07-08T00:25:42;96616.31;;;18.43;51.67
34328;BME280;20588;48.840;10.064;2023-07-08T00:28:20;96617.09;;;18.44;51.79
34328;BME280;20588;48.840;10.064;2023-07-08T00:30:47;96609.03;;;18.40;51.49
34328;BME280;20588;48.840;10.064;2023-07-08T00:33:13;96604.06;;;18.44;50.75
34328;BME280;20588;48.840;10.064;2023-07-08T00:35:41;96595.72;;;18.47;50.40
34328;BME280;20588;48.840;10.064;2023-07-08T00:38:14;96590.50;;;18.47;50.50
34328;BME280;20588;48.840;10.064;2023-07-08T00:46:16;96590.78;;;18.40;51.36
34328;BME280;20588;48.840;10.064;2023-07-08T00:48:45;96592.84;;;18.38;51.03
34328;BME280;20588;48.840;10.064;2023-07-08T00:51:12;96598.84;;;18.39;50.94
34328;BME280;20588;48.840;10.064;2023-07-08T00:53:38;96593.88;;;18.42;50.70
34328;BME280;20588;48.840;10.064;2023-07-08T00:56:12;96596.50;;;18.42;50.81
34328;BME280;20588;48.840;10.064;2023-07-08T00:59:04;96595.47;;;18.43;50.79
34328;BME280;20588;48.840;10.064;2023-07-08T01:01:35;96606.66;;;18.44;51.07
34328;BME280;20588;48.840;10.064;2023-07-08T01:04:28;96609.28;;;18.44;51.10
34328;BME280;20588;48.840;10.064;2023-07-08T01:06:58;96611.63;;;18.45;51.09
34328;BME280;20588;48.840;10.064;2023-07-08T01:09:41;96603.03;;;18.45;51.09
34328;BME280;20588;48.840;10.064;2023-07-08T01:12:12;96611.66;;;18.50;51.12
34328;BME280;20588;48.840;10.064;2023-07-08T01:14:42;96617.91;;;18.49;51.09
34328;BME280;20588;48.840;10.064;2023-07-08T01:17:09;96615.31;;;18.49;51.26
34328;BME280;20588;48.840;10.064;2023-07-08T01:19:40;96611.88;;;18.44;51.50
34328;BME280;20588;48.840;10.064;2023-07-08T01:22:07;96612.38;;;18.41;51.67
34328;BME280;20588;48.840;10.064;2023-07-08T01:24:36;96602.97;;;18.35;52.97
34328;BME280;20588;48.840;10.064;2023-07-08T01:27:07;96597.72;;;18.25;53.41
34328;BME280;20588;48.840;10.064;2023-07-08T01:29:33;96597.69;;;18.20;53.68
34328;BME280;20588;48.840;10.064;2023-07-08T01:32:00;96599.78;;;18.13;54.87
34328;BME280;20588;48.840;10.064;2023-07-08T01:34:29;96597.91;;;18.03;56.21
34328;BME280;20588;48.840;10.064;2023-07-08T01:36:57;96597.88;;;17.93;57.74
34328;BME280;20588;48.840;10.064;2023-07-08T01:39:26;96598.59;;;17.83;57.58
34328;BME280;20588;48.840;10.064;2023-07-08T01:41:52;96595.44;;;17.81;56.63
34328;BME280;20588;48.840;10.064;2023-07-08T01:44:31;96597.28;;;17.81;55.83
34328;BME280;20588;48.840;10.064;2023-07-08T01:47:11;96591.84;;;17.87;55.76
34328;BME280;20588;48.840;10.064;2023-07-08T01:49:40;96599.41;;;17.94;55.10
34328;BME280;20588;48.840;10.064;2023-07-08T01:52:08;96592.69;;;18.03;54.87
34328;BME280;20588;48.840;10.064;2023-07-08T01:54:34;96588.28;;;18.09;54.22
34328;BME280;20588;48.840;10.064;2023-07-08T01:57:00;96591.63;;;18.04;55.79
34328;BME280;20588;48.840;10.064;2023-07-08T01:59:28;96584.59;;;17.94;56.93
34328;BME280;20588;48.840;10.064;2023-07-08T02:01:54;96585.31;;;17.85;56.75
34328;BME280;20588;48.840;10.064;2023-07-08T02:04:25;96587.13;;;17.79;56.35
34328;BME280;20588;48.840;10.064;2023-07-08T02:06:56;96584.28;;;17.81;55.82
34328;BME280;20588;48.840;10.064;2023-07-08T02:09:23;96589.97;;;17.78;55.62
34328;BME280;20588;48.840;10.064;2023-07-08T02:11:51;96582.44;;;17.76;55.83
34328;BME280;20588;48.840;10.064;2023-07-08T02:14:17;96580.06;;;17.75;56.11
34328;BME280;20588;48.840;10.064;2023-07-08T02:16:43;96585.28;;;17.75;56.19
34328;BME280;20588;48.840;10.064;2023-07-08T02:19:11;96585.78;;;17.77;56.21
34328;BME280;20588;48.840;10.064;2023-07-08T02:21:37;96579.28;;;17.74;55.79
34328;BME280;20588;48.840;10.064;2023-07-08T02:24:04;96586.03;;;17.75;56.13
34328;BME280;20588;48.840;10.064;2023-07-08T02:26:31;96577.72;;;17.73;56.41
34328;BME280;20588;48.840;10.064;2023-07-08T02:29:00;96580.59;;;17.72;56.63
34328;BME280;20588;48.840;10.064;2023-07-08T02:31:27;96585.53;;;17.73;56.58
34328;BME280;20588;48.840;10.064;2023-07-08T02:33:53;96586.84;;;17.76;56.50
34328;BME280;20588;48.840;10.064;2023-07-08T02:36:21;96586.03;;;17.75;56.64
34328;BME280;20588;48.840;10.064;2023-07-08T02:38:47;96587.84;;;17.70;56.72
34328;BME280;20588;48.840;10.064;2023-07-08T02:41:13;96587.56;;;17.66;57.22
34328;BME280;20588;48.840;10.064;2023-07-08T02:43:39;96586.00;;;17.65;56.98
34328;BME280;20588;48.840;10.064;2023-07-08T02:46:05;96585.50;;;17.68;57.42
34328;BME280;20588;48.840;10.064;2023-07-08T02:48:31;96594.59;;;17.66;57.48
34328;BME280;20588;48.840;10.064;2023-07-08T02:51:01;96597.47;;;17.64;57.33
34328;BME280;20588;48.840;10.064;2023-07-08T02:53:28;96600.09;;;17.74;56.43
34328;BME280;20588;48.840;10.064;2023-07-08T02:55:54;96601.44;;;17.82;55.91
34328;BME280;20588;48.840;10.064;2023-07-08T02:58:20;96598.13;;;17.91;55.97
34328;BME280;20588;48.840;10.064;2023-07-08T03:00:52;96600.97;;;17.90;56.17
34328;BME280;20588;48.840;10.064;2023-07-08T03:03:18;96597.03;;;17.87;56.71
34328;BME280;20588;48.840;10.064;2023-07-08T03:05:44;96601.19;;;17.83;57.71
34328;BME280;20588;48.840;10.064;2023-07-08T03:08:10;96606.47;;;17.98;54.91
34328;BME280;20588;48.840;10.064;2023-07-08T03:10:36;96611.69;;;17.98;56.36
34328;BME280;20588;48.840;10.064;2023-07-08T03:13:02;96618.47;;;18.05;55.92
34328;BME280;20588;48.840;10.064;2023-07-08T03:15:28;96617.09;;;18.39;54.32
34328;BME280;20588;48.840;10.064;2023-07-08T03:17:54;96615.31;;;18.59;55.32
34328;BME280;20588;48.840;10.064;2023-07-08T03:20:23;96619.47;;;18.50;54.92
34328;BME280;20588;48.840;10.064;2023-07-08T03:22:49;96623.63;;;18.46;55.40
34328;BME280;20588;48.840;10.064;2023-07-08T03:25:15;96628.63;;;18.68;53.06
34328;BME280;20588;48.840;10.064;2023-07-08T03:27:45;96627.34;;;18.90;51.13
34328;BME280;20588;48.840;10.064;2023-07-08T03:30:11;96625.53;;;19.01;51.64
34328;BME280;20588;48.840;10.064;2023-07-08T03:32:37;96624.22;;;18.93;52.77
34328;BME280;20588;48.840;10.064;2023-07-08T03:35:04;96632.56;;;18.85;54.20
34328;BME280;20588;48.840;10.064;2023-07-08T03:37:30;96631.25;;;18.73;55.02
34328;BME280;20588;48.840;10.064;2023-07-08T03:39:56;96630.41;;;18.57;55.31
34328;BME280;20588;48.840;10.064;2023-07-08T03:42:22;96637.72;;;18.50;55.23
34328;BME280;20588;48.840;10.064;2023-07-08T03:44:48;96639.53;;;18.45;55.17
34328;BME280;20588;48.840;10.064;2023-07-08T03:47:14;96637.19;;;18.53;54.17
34328;BME280;20588;48.840;10.064;2023-07-08T03:49:40;96637.44;;;18.52;56.11
34328;BME280;20588;48.840;10.064;2023-07-08T03:52:12;96641.09;;;18.46;57.13
34328;BME280;20588;48.840;10.064;2023-07-08T03:54:40;96646.53;;;18.39;57.94
34328;BME280;20588;48.840;10.064;2023-07-08T03:57:06;96654.31;;;18.34;58.16
34328;BME280;20588;48.840;10.064;2023-07-08T03:59:32;96669.41;;;18.32;57.46
34328;BME280;20588;48.840;10.064;2023-07-08T04:01:58;96676.47;;;18.37;56.47
34328;BME280;20588;48.840;10.064;2023-07-08T04:04:25;96661.16;;;18.45;56.12
34328;BME280;20588;48.840;10.064;2023-07-08T04:06:51;96647.09;;;18.46;57.56
34328;BME280;20588;48.840;10.064;2023-07-08T04:09:17;96650.47;;;18.47;58.64
34328;BME280;20588;48.840;10.064;2023-07-08T04:11:43;96646.28;;;18.46;57.04
34328;BME280;20588;48.840;10.064;2023-07-08T04:14:10;96660.38;;;18.50;57.87
34328;BME280;20588;48.840;10.064;2023-07-08T04:17:06;96659.34;;;18.51;57.67
34328;BME280;20588;48.840;10.064;2023-07-08T04:19:32;96651.53;;;18.56;57.92
34328;BME280;20588;48.840;10.064;2023-07-08T04:22:00;96648.44;;;18.64;58.13
34328;BME280;20588;48.840;10.064;2023-07-08T04:24:26;96651.06;;;18.79;58.48
34328;BME280;20588;48.840;10.064;2023-07-08T04:26:52;96651.66;;;19.16;56.68
34328;BME280;20588;48.840;10.064;2023-07-08T04:29:20;96643.44;;;20.28;54.09
34328;BME280;20588;48.840;10.064;2023-07-08T04:31:47;96640.69;;;21.69;50.25
34328;BME280;20588;48.840;10.064;2023-07-08T04:34:14;96652.13;;;23.09;46.68
34328;BME280;20588;48.840;10.064;2023-07-08T04:36:41;96648.91;;;24.35;43.70
34328;BME280;20588;48.840;10.064;2023-07-08T04:39:08;96642.91;;;25.42;41.94
34328;BME280;20588;48.840;10.064;2023-07-08T04:41:37;96643.34;;;26.27;40.03
34328;BME280;20588;48.840;10.064;2023-07-08T04:44:07;96640.53;;;27.14;38.40
34328;BME280;20588;48.840;10.064;2023-07-08T04:46:37;96648.22;;;27.87;34.90
34328;BME280;20588;48.840;10.064;2023-07-08T04:49:06;96659.03;;;28.49;34.21
34328;BME280;20588;48.840;10.064;2023-07-08T04:51:32;96658.25;;;29.18;33.45
34328;BME280;20588;48.840;10.064;2023-07-08T04:53:59;96647.44;;;29.23;33.51
34328;BME280;20588;48.840;10.064;2023-07-08T04:59:02;96648.03;;;29.29;32.46
34328;BME280;20588;48.840;10.064;2023-07-08T05:01:29;96648.75;;;28.39;33.46
34328;BME280;20588;48.840;10.064;2023-07-08T05:03:55;96650.44;;;27.51;34.86
34328;BME280;20588;48.840;10.064;2023-07-08T05:06:21;96655.47;;;27.35;35.71
34328;BME280;20588;48.840;10.064;2023-07-08T05:08:47;96657.03;;;27.28;35.86
34328;BME280;20588;48.840;10.064;2023-07-08T05:11:13;96654.66;;;27.18;36.29
34328;BME280;20588;48.840;10.064;2023-07-08T05:13:39;96656.06;;;26.90;37.76
34328;BME280;20588;48.840;10.064;2023-07-08T05:16:06;96653.41;;;26.81;38.85
34328;BME280;20588;48.840;10.064;2023-07-08T05:18:32;96650.63;;;27.12;38.56
34328;BME280;20588;48.840;10.064;2023-07-08T05:20:58;96656.28;;;27.99;37.45
34328;BME280;20588;48.840;10.064;2023-07-08T05:23:24;96647.75;;;29.75;35.10
34328;BME280;20588;48.840;10.064;2023-07-08T05:25:50;96647.44;;;30.97;33.55
34328;BME280;20588;48.840;10.064;2023-07-08T05:28:16;96633.69;;;31.22;32.99
34328;BME280;20588;48.840;10.064;2023-07-08T05:30:43;96640.00;;;30.90;33.34
34328;BME280;20588;48.840;10.064;2023-07-08T05:33:09;96633.09;;;30.50;33.94
34328;BME280;20588;48.840;10.064;2023-07-08T05:35:35;96636.41;;;29.99;32.61
34328;BME280;20588;48.840;10.064;2023-07-08T05:38:02;96644.00;;;29.55;33.75
34328;BME280;20588;48.840;10.064;2023-07-08T05:40:28;96637.38;;;29.82;33.70
34328;BME280;20588;48.840;10.064;2023-07-08T05:42:54;96638.16;;;30.07;33.97
34328;BME280;20588;48.840;10.064;2023-07-08T05:45:20;96634.91;;;29.65;33.86
34328;BME280;20588;48.840;10.064;2023-07-08T05:47:46;96634.13;;;29.76;34.09
34328;BME280;20588;48.840;10.064;2023-07-08T05:50:12;96632.94;;;29.86;33.73
34328;BME280;20588;48.840;10.064;2023-07-08T05:52:38;96630.28;;;29.74;33.40
34328;BME280;20588;48.840;10.064;2023-07-08T05:55:05;96622.84;;;29.67;32.82
34328;BME280;20588;48.840;10.064;2023-07-08T05:57:31;96621.19;;;29.75;33.53
34328;BME280;20588;48.840;10.064;2023-07-08T05:59:57;96624.78;;;29.91;33.83
34328;BME280;20588;48.840;10.064;2023-07-08T06:02:23;96630.41;;;30.02;33.12
34328;BME280;20588;48.840;10.064;2023-07-08T06:04:51;96623.13;;;30.11;33.21
34328;BME280;20588;48.840;10.064;2023-07-08T06:07:17;96629.97;;;30.00;33.74
34328;BME280;20588;48.840;10.064;2023-07-08T06:09:44;96627.31;;;30.48;33.86
34328;BME280;20588;48.840;10.064;2023-07-08T06:12:10;96643.78;;;30.89;33.45
34328;BME280;20588;48.840;10.064;2023-07-08T06:14:36;96645.72;;;31.44;32.87
34328;BME280;20588;48.840;10.064;2023-07-08T06:17:04;96635.56;;;31.77;32.34
34328;BME280;20588;48.840;10.064;2023-07-08T06:19:30;96629.47;;;32.23;31.82
34328;BME280;20588;48.840;10.064;2023-07-08T06:21:56;96625.13;;;32.65;31.89
34328;BME280;20588;48.840;10.064;2023-07-08T06:24:22;96629.84;;;33.07;32.31
34328;BME280;20588;48.840;10.064;2023-07-08T06:26:48;96626.44;;;33.29;31.14
34328;BME280;20588;48.840;10.064;2023-07-08T06:29:15;96630.44;;;33.80;31.40
34328;BME280;20588;48.840;10.064;2023-07-08T06:31:42;96612.00;;;33.94;30.87
34328;BME280;20588;48.840;10.064;2023-07-08T06:34:08;96606.94;;;34.11;30.41
34328;BME280;20588;48.840;10.064;2023-07-08T06:36:34;96610.47;;;33.93;30.58
34328;BME280;20588;48.840;10.064;2023-07-08T06:39:01;96623.25;;;33.61;30.17
34328;BME280;20588;48.840;10.064;2023-07-08T06:41:27;96628.38;;;32.74;30.27
34328;BME280;20588;48.840;10.064;2023-07-08T06:43:53;96626.31;;;32.18;31.06
34328;BME280;20588;48.840;10.064;2023-07-08T06:46:19;96626.88;;;31.65;32.38
34328;BME280;20588;48.840;10.064;2023-07-08T06:48:45;96635.94;;;31.48;33.35
34328;BME280;20588;48.840;10.064;2023-07-08T06:51:12;96639.00;;;31.34;33.34
34328;BME280;20588;48.840;10.064;2023-07-08T06:53:38;96649.91;;;31.17;33.11
34328;BME280;20588;48.840;10.064;2023-07-08T06:56:04;96688.81;;;31.22;33.21
34328;BME280;20588;48.840;10.064;2023-07-08T06:58:30;96692.78;;;30.88;32.54
34328;BME280;20588;48.840;10.064;2023-07-08T07:00:56;96675.41;;;30.79;33.81
34328;BME280;20588;48.840;10.064;2023-07-08T07:03:24;96690.44;;;30.99;35.50
34328;BME280;20588;48.840;10.064;2023-07-08T07:05:50;96693.94;;;31.15;34.38
34328;BME280;20588;48.840;10.064;2023-07-08T07:08:16;96672.81;;;31.89;32.94
34328;BME280;20588;48.840;10.064;2023-07-08T07:10:42;96685.44;;;32.23;32.51
34328;BME280;20588;48.840;10.064;2023-07-08T07:13:08;96678.91;;;32.21;32.97
34328;BME280;20588;48.840;10.064;2023-07-08T07:15:34;96684.78;;;32.42;33.28
34328;BME280;20588;48.840;10.064;2023-07-08T07:18:01;96684.50;;;32.16;34.05
34328;BME280;20588;48.840;10.064;2023-07-08T07:20:27;96695.25;;;31.88;34.08
34328;BME280;20588;48.840;10.064;2023-07-08T07:22:55;96699.00;;;31.87;33.58
34328;BME280;20588;48.840;10.064;2023-07-08T07:25:21;96707.38;;;31.46;34.04
34328;BME280;20588;48.840;10.064;2023-07-08T07:27:48;96702.94;;;31.50;34.20
34328;BME280;20588;48.840;10.064;2023-07-08T07:30:14;96704.53;;;31.94;34.81
34328;BME280;20588;48.840;10.064;2023-07-08T07:32:41;96697.81;;;32.31;33.23
34328;BME280;20588;48.840;10.064;2023-07-08T07:35:11;96702.13;;;32.20;32.35
34328;BME280;20588;48.840;10.064;2023-07-08T07:37:44;96699.47;;;32.36;31.88
34328;BME280;20588;48.840;10.064;2023-07-08T07:40:11;96705.66;;;32.24;31.94
34328;BME280;20588;48.840;10.064;2023-07-08T07:42:42;96706.19;;;32.45;32.21
34328;BME280;20588;48.840;10.064;2023-07-08T07:45:10;96707.97;;;33.42;31.11
34328;BME280;20588;48.840;10.064;2023-07-08T07:47:36;96706.72;;;34.38;29.03
34328;BME280;20588;48.840;10.064;2023-07-08T07:50:04;96708.28;;;34.65;29.01
34328;BME280;20588;48.840;10.064;2023-07-08T07:52:31;96711.00;;;34.23;29.08
34328;BME280;20588;48.840;10.064;2023-07-08T07:54:57;96714.88;;;33.84;29.58
34328;BME280;20588;48.840;10.064;2023-07-08T07:57:23;96721.13;;;33.50;30.11
34328;BME280;20588;48.840;10.064;2023-07-08T07:59:50;96724.69;;;33.04;30.86
34328;BME280;20588;48.840;10.064;2023-07-08T08:02:17;96717.91;;;32.56;31.17
34328;BME280;20588;48.840;10.064;2023-07-08T08:04:43;96712.88;;;32.24;31.88
34328;BME280;20588;48.840;10.064;2023-07-08T08:07:09;96727.13;;;32.16;32.19
34328;BME280;20588;48.840;10.064;2023-07-08T08:09:36;96730.50;;;31.97;32.23
34328;BME280;20588;48.840;10.064;2023-07-08T08:12:03;96729.22;;;31.79;33.33
34328;BME280;20588;48.840;10.064;2023-07-08T08:14:30;96733.88;;;31.55;32.27
34328;BME280;20588;48.840;10.064;2023-07-08T08:16:56;96735.22;;;31.49;32.68
34328;BME280;20588;48.840;10.064;2023-07-08T08:19:22;96740.81;;;31.19;33.08
34328;BME280;20588;48.840;10.064;2023-07-08T08:21:49;96736.06;;;31.13;32.76
34328;BME280;20588;48.840;10.064;2023-07-08T08:24:15;96739.50;;;31.13;33.08
34328;BME280;20588;48.840;10.064;2023-07-08T08:26:41;96743.63;;;30.99;33.38
34328;BME280;20588;48.840;10.064;2023-07-08T08:29:07;96746.41;;;30.90;33.27
34328;BME280;20588;48.840;10.064;2023-07-08T08:31:33;96746.59;;;30.73;33.68
34328;BME280;20588;48.840;10.064;2023-07-08T08:33:59;96756.03;;;30.59;33.79
34328;BME280;20588;48.840;10.064;2023-07-08T08:36:25;96752.47;;;30.43;33.62
34328;BME280;20588;48.840;10.064;2023-07-08T08:38:51;96754.16;;;30.15;33.80
34328;BME280;20588;48.840;10.064;2023-07-08T08:41:19;96757.59;;;30.15;34.33
34328;BME280;20588;48.840;10.064;2023-07-08T08:43:48;96761.31;;;30.35;34.67
34328;BME280;20588;48.840;10.064;2023-07-08T08:46:32;96753.47;;;30.50;34.57
34328;BME280;20588;48.840;10.064;2023-07-08T08:49:10;96747.59;;;31.17;33.96
34328;BME280;20588;48.840;10.064;2023-07-08T08:51:40;96759.09;;;32.43;33.14
34328;BME280;20588;48.840;10.064;2023-07-08T08:54:08;96754.50;;;33.41;31.60
34328;BME280;20588;48.840;10.064;2023-07-08T08:59:20;96754.44;;;35.66;29.34
34328;BME280;20588;48.840;10.064;2023-07-08T09:01:49;96747.06;;;36.73;27.77
34328;BME280;20588;48.840;10.064;2023-07-08T09:04:27;96761.09;;;37.75;27.05
34328;BME280;20588;48.840;10.064;2023-07-08T09:07:00;96750.09;;;38.75;25.80
34328;BME280;20588;48.840;10.064;2023-07-08T09:09:33;96749.22;;;39.52;25.00
34328;BME280;20588;48.840;10.064;2023-07-08T09:12:05;96747.91;;;39.81;24.98
34328;BME280;20588;48.840;10.064;2023-07-08T09:14:35;96754.28;;;40.18;24.74
34328;BME280;20588;48.840;10.064;2023-07-08T09:17:22;96746.41;;;39.69;24.44
34328;BME280;20588;48.840;10.064;2023-07-08T09:23:03;96747.44;;;38.82;25.04
34328;BME280;20588;48.840;10.064;2023-07-08T09:25:42;96741.66;;;38.52;25.39
34328;BME280;20588;48.840;10.064;2023-07-08T09:28:12;96744.72;;;38.36;25.15
34328;BME280;20588;48.840;10.064;2023-07-08T09:30:39;96732.81;;;38.44;25.80
34328;BME280;20588;48.840;10.064;2023-07-08T09:33:07;96738.56;;;39.06;25.68
34328;BME280;20588;48.840;10.064;2023-07-08T09:35:49;96746.25;;;38.86;25.01
34328;BME280;20588;48.840;10.064;2023-07-08T09:38:22;96741.63;;;38.17;24.96
34328;BME280;20588;48.840;10.064;2023-07-08T09:40:50;96739.88;;;37.52;25.72
34328;BME280;20588;48.840;10.064;2023-07-08T09:45:51;96741.75;;;37.41;26.53
34328;BME280;20588;48.840;10.064;2023-07-08T09:48:28;96738.81;;;36.96;26.07
34328;BME280;20588;48.840;10.064;2023-07-08T09:50:57;96733.13;;;37.11;26.96
34328;BME280;20588;48.840;10.064;2023-07-08T09:53:24;96737.03;;;38.35;27.07
34328;BME280;20588;48.840;10.064;2023-07-08T09:55:51;96732.97;;;39.62;25.59
34328;BME280;20588;48.840;10.064;2023-07-08T09:58:32;96736.59;;;41.02;24.23
34328;BME280;20588;48.840;10.064;2023-07-08T10:01:10;96736.06;;;41.55;23.18
34328;BME280;20588;48.840;10.064;2023-07-08T10:03:37;96734.78;;;41.63;23.19
34328;BME280;20588;48.840;10.064;2023-07-08T10:06:19;96739.13;;;42.13;23.52
34328;BME280;20588;48.840;10.064;2023-07-08T10:08:47;96727.97;;;41.81;22.79
34328;BME280;20588;48.840;10.064;2023-07-08T10:11:31;96728.97;;;41.64;23.25
34328;BME280;20588;48.840;10.064;2023-07-08T10:14:44;96732.69;;;40.66;23.75
34328;BME280;20588;48.840;10.064;2023-07-08T10:16:51;96724.78;;;39.87;24.78
34328;BME280;20588;48.840;10.064;2023-07-08T10:19:19;96737.75;;;39.16;24.60
34328;BME280;20588;48.840;10.064;2023-07-08T10:22:15;96731.63;;;38.52;26.21
34328;BME280;20588;48.840;10.064;2023-07-08T10:30:53;96729.59;;;36.46;27.78
34328;BME280;20588;48.840;10.064;2023-07-08T10:33:50;96737.06;;;35.86;28.98
34328;BME280;20588;48.840;10.064;2023-07-08T10:36:53;96735.50;;;35.23;28.65
34328;BME280;20588;48.840;10.064;2023-07-08T10:42:26;96734.00;;;34.28;29.80
34328;BME280;20588;48.840;10.064;2023-07-08T10:44:59;96736.44;;;33.91;29.91
34328;BME280;20588;48.840;10.064;2023-07-08T10:47:40;96733.66;;;33.69;30.61
34328;BME280;20588;48.840;10.064;2023-07-08T10:55:55;96733.84;;;33.22;32.46
34328;BME280;20588;48.840;10.064;2023-07-08T11:04:02;96733.00;;;33.18;31.86
34328;BME280;20588;48.840;10.064;2023-07-08T11:09:16;96731.59;;;33.40;30.91
34328;BME280;20588;48.840;10.064;2023-07-08T11:15:00;96730.09;;;33.42;31.21
34328;BME280;20588;48.840;10.064;2023-07-08T11:22:54;96736.09;;;33.55;31.59
34328;BME280;20588;48.840;10.064;2023-07-08T11:25:24;96729.69;;;33.59;31.26
34328;BME280;20588;48.840;10.064;2023-07-08T11:27:55;96732.28;;;33.94;30.73
34328;BME280;20588;48.840;10.064;2023-07-08T11:30:23;96726.66;;;33.99;31.06
34328;BME280;20588;48.840;10.064;2023-07-08T11:33:03;96729.78;;;34.04;31.58
34328;BME280;20588;48.840;10.064;2023-07-08T11:35:49;96727.63;;;34.55;30.45
34328;BME280;20588;48.840;10.064;2023-07-08T11:38:19;96722.16;;;35.56;29.44
34328;BME280;20588;48.840;10.064;2023-07-08T11:40:55;96715.22;;;36.28;28.68
34328;BME280;20588;48.840;10.064;2023-07-08T11:43:24;96718.91;;;36.09;28.04
34328;BME280;20588;48.840;10.064;2023-07-08T11:45:53;96717.44;;;36.15;29.14
34328;BME280;20588;48.840;10.064;2023-07-08T11:48:31;96715.91;;;36.18;28.00
34328;BME280;20588;48.840;10.064;2023-07-08T11:51:05;96714.63;;;36.45;28.13
34328;BME280;20588;48.840;10.064;2023-07-08T11:53:34;96720.41;;;37.01;27.59
34328;BME280;20588;48.840;10.064;2023-07-08T12:03:51;96715.13;;;38.57;25.47
34328;BME280;20588;48.840;10.064;2023-07-08T12:08:54;96710.13;;;38.66;24.81
34328;BME280;20588;48.840;10.064;2023-07-08T12:11:32;96707.03;;;38.64;25.29
34328;BME280;20588;48.840;10.064;2023-07-08T12:14:00;96714.34;;;38.50;24.85
34328;BME280;20588;48.840;10.064;2023-07-08T12:16:28;96713.22;;;38.54;23.91
34328;BME280;20588;48.840;10.064;2023-07-08T12:18:55;96708.94;;;38.11;25.02
34328;BME280;20588;48.840;10.064;2023-07-08T12:21:24;96707.03;;;38.43;25.83
34328;BME280;20588;48.840;10.064;2023-07-08T12:23:52;96709.72;;;38.71;24.15
34328;BME280;20588;48.840;10.064;2023-07-08T12:26:18;96705.50;;;38.63;24.29
34328;BME280;20588;48.840;10.064;2023-07-08T12:28:44;96708.97;;;38.60;24.25
34328;BME280;20588;48.840;10.064;2023-07-08T12:31:16;96705.13;;;38.58;24.94
34328;BME280;20588;48.840;10.064;2023-07-08T12:33:44;96704.72;;;38.45;24.62
34328;BME280;20588;48.840;10.064;2023-07-08T12:36:15;96700.47;;;38.48;24.70
34328;BME280;20588;48.840;10.064;2023-07-08T12:38:44;96701.28;;;38.41;24.44
34328;BME280;20588;48.840;10.064;2023-07-08T12:41:17;96706.22;;;37.97;24.79
34328;BME280;20588;48.840;10.064;2023-07-08T12:43:44;96697.81;;;38.27;25.71
34328;BME280;20588;48.840;10.064;2023-07-08T12:46:12;96695.50;;;38.64;25.37
34328;BME280;20588;48.840;10.064;2023-07-08T12:48:40;96698.56;;;38.83;25.37
34328;BME280;20588;48.840;10.064;2023-07-08T12:51:10;96696.19;;;39.10;25.73
34328;BME280;20588;48.840;10.064;2023-07-08T12:53:37;96691.41;;;39.53;25.01
34328;BME280;20588;48.840;10.064;2023-07-08T12:56:03;96688.25;;;39.72;24.60
34328;BME280;20588;48.840;10.064;2023-07-08T12:58:34;96690.88;;;39.79;23.92
34328;BME280;20588;48.840;10.064;2023-07-08T13:01:03;96692.09;;;39.71;24.81
34328;BME280;20588;48.840;10.064;2023-07-08T13:03:35;96685.94;;;39.70;23.57
34328;BME280;20588;48.840;10.064;2023-07-08T13:06:03;96689.09;;;39.55;23.40
34328;BME280;20588;48.840;10.064;2023-07-08T13:08:34;96681.63;;;38.72;23.26
34328;BME280;20588;48.840;10.064;2023-07-08T13:11:02;96680.44;;;38.91;23.64
34328;BME280;20588;48.840;10.064;2023-07-08T13:13:40;96684.72;;;38.46;23.81
34328;BME280;20588;48.840;10.064;2023-07-08T13:16:10;96687.75;;;37.85;24.47
34328;BME280;20588;48.840;10.064;2023-07-08T13:18:39;96686.06;;;37.35;25.33
34328;BME280;20588;48.840;10.064;2023-07-08T13:21:09;96687.34;;;36.90;26.09
34328;BME280;20588;48.840;10.064;2023-07-08T13:23:36;96687.28;;;36.80;26.46
34328;BME280;20588;48.840;10.064;2023-07-08T13:26:16;96676.00;;;36.57;24.90
34328;BME280;20588;48.840;10.064;2023-07-08T13:28:44;96678.41;;;36.72;24.97
34328;BME280;20588;48.840;10.064;2023-07-08T13:31:20;96676.22;;;36.92;25.26
34328;BME280;20588;48.840;10.064;2023-07-08T13:33:48;96681.63;;;36.95;24.26
34328;BME280;20588;48.840;10.064;2023-07-08T13:36:19;96677.38;;;36.91;24.61
34328;BME280;20588;48.840;10.064;2023-07-08T13:38:46;96679.03;;;37.09;24.81
34328;BME280;20588;48.840;10.064;2023-07-08T13:41:19;96682.50;;;37.17;24.32
34328;BME280;20588;48.840;10.064;2023-07-08T13:43:47;96680.25;;;37.22;24.97
34328;BME280;20588;48.840;10.064;2023-07-08T13:46:39;96669.03;;;37.10;24.10
34328;BME280;20588;48.840;10.064;2023-07-08T13:49:20;96674.31;;;36.85;24.44
34328;BME280;20588;48.840;10.064;2023-07-08T13:51:46;96669.69;;;36.32;25.34
34328;BME280;20588;48.840;10.064;2023-07-08T13:54:38;96671.66;;;35.94;25.87
34328;BME280;20588;48.840;10.064;2023-07-08T13:57:10;96669.69;;;35.88;25.02
34328;BME280;20588;48.840;10.064;2023-07-08T13:59:36;96667.41;;;35.93;25.57